sensor_id;sensor_type;location;lat;lon;timestamp;temperature;humidity
64997;SHT31;51545;51.568;6.998;2023-01-20T00:01:16;1.38;97.51
64997;SHT31;51545;51.568;6.998;2023-01-20T00:03:42;1.35;97.34
64997;SHT31;51545;51.568;6.998;2023-01-20T00:06:09;1.34;97.34
64997;SHT31;51545;51.568;6.998;2023-01-20T00:08:36;1.32;97.43
64997;SHT31;51545;51.568;6.998;2023-01-20T00:11:03;1.34;97.36
64997;SHT31;51545;51.568;6.998;2023-01-20T00:13:29;1.34;97.43
64997;SHT31;51545;51.568;6.998;2023-01-20T00:15:55;1.31;97.30
64997;SHT31;51545;51.568;6.998;2023-01-20T00:18:21;1.32;97.33
64997;SHT31;51545;51.568;6.998;2023-01-20T00:20:46;1.38;97.31
64997;SHT31;51545;51.568;6.998;2023-01-20T00:23:12;1.31;97.31
64997;SHT31;51545;51.568;6.998;2023-01-20T00:25:37;1.35;97.47
64997;SHT31;51545;51.568;6.998;2023-01-20T00:28:03;1.36;97.45
64997;SHT31;51545;51.568;6.998;2023-01-20T00:30:29;1.39;97.43
64997;SHT31;51545;51.568;6.998;2023-01-20T00:32:54;1.38;97.45
64997;SHT31;51545;51.568;6.998;2023-01-20T00:35:20;1.35;97.39
64997;SHT31;51545;51.568;6.998;2023-01-20T00:37:45;1.35;97.48
64997;SHT31;51545;51.568;6.998;2023-01-20T00:40:11;1.35;97.45
64997;SHT31;51545;51.568;6.998;2023-01-20T00:42:36;1.39;97.54
64997;SHT31;51545;51.568;6.998;2023-01-20T00:45:02;1.39;97.53
64997;SHT31;51545;51.568;6.998;2023-01-20T00:47:27;1.35;97.52
64997;SHT31;51545;51.568;6.998;2023-01-20T00:49:53;1.35;97.56
64997;SHT31;51545;51.568;6.998;2023-01-20T00:52:18;1.38;97.61
64997;SHT31;51545;51.568;6.998;2023-01-20T00:54:44;1.39;97.64
64997;SHT31;51545;51.568;6.998;2023-01-20T00:57:10;1.38;97.52
64997;SHT31;51545;51.568;6.998;2023-01-20T00:59:36;1.35;97.43
64997;SHT31;51545;51.568;6.998;2023-01-20T01:02:02;1.32;97.62
64997;SHT31;51545;51.568;6.998;2023-01-20T01:04:27;1.32;97.69
64997;SHT31;51545;51.568;6.998;2023-01-20T01:06:53;1.39;97.67
64997;SHT31;51545;51.568;6.998;2023-01-20T01:09:19;1.36;97.69
64997;SHT31;51545;51.568;6.998;2023-01-20T01:11:46;1.32;97.73
64997;SHT31;51545;51.568;6.998;2023-01-20T01:14:15;1.35;97.89
64997;SHT31;51545;51.568;6.998;2023-01-20T01:16:40;1.34;97.82
64997;SHT31;51545;51.568;6.998;2023-01-20T01:19:06;1.34;97.89
64997;SHT31;51545;51.568;6.998;2023-01-20T01:21:32;1.32;97.95
64997;SHT31;51545;51.568;6.998;2023-01-20T01:23:58;1.35;97.88
64997;SHT31;51545;51.568;6.998;2023-01-20T01:26:23;1.36;97.99
64997;SHT31;51545;51.568;6.998;2023-01-20T01:28:49;1.32;97.79
64997;SHT31;51545;51.568;6.998;2023-01-20T01:31:15;1.32;97.88
64997;SHT31;51545;51.568;6.998;2023-01-20T01:33:43;1.40;97.96
64997;SHT31;51545;51.568;6.998;2023-01-20T01:36:11;1.35;97.90
64997;SHT31;51545;51.568;6.998;2023-01-20T01:38:41;1.34;97.97
64997;SHT31;51545;51.568;6.998;2023-01-20T01:41:08;1.36;97.95
64997;SHT31;51545;51.568;6.998;2023-01-20T01:43:36;1.35;97.75
64997;SHT31;51545;51.568;6.998;2023-01-20T01:46:02;1.39;97.87
64997;SHT31;51545;51.568;6.998;2023-01-20T01:48:33;1.40;97.81
64997;SHT31;51545;51.568;6.998;2023-01-20T01:51:16;1.42;97.74
64997;SHT31;51545;51.568;6.998;2023-01-20T01:53:47;1.42;97.56
64997;SHT31;51545;51.568;6.998;2023-01-20T01:56:18;1.40;97.45
64997;SHT31;51545;51.568;6.998;2023-01-20T01:58:46;1.38;97.40
64997;SHT31;51545;51.568;6.998;2023-01-20T02:01:15;1.34;97.22
64997;SHT31;51545;51.568;6.998;2023-01-20T02:04:03;1.36;97.30
64997;SHT31;51545;51.568;6.998;2023-01-20T02:06:33;1.34;97.36
64997;SHT31;51545;51.568;6.998;2023-01-20T02:09:03;1.25;97.43
64997;SHT31;51545;51.568;6.998;2023-01-20T02:11:29;1.35;97.58
64997;SHT31;51545;51.568;6.998;2023-01-20T02:13:59;1.32;97.42
64997;SHT31;51545;51.568;6.998;2023-01-20T02:16:29;1.32;97.50
64997;SHT31;51545;51.568;6.998;2023-01-20T02:25:16;1.31;97.57
64997;SHT31;51545;51.568;6.998;2023-01-20T02:27:53;1.28;97.76
64997;SHT31;51545;51.568;6.998;2023-01-20T02:36:18;1.25;98.32
64997;SHT31;51545;51.568;6.998;2023-01-20T02:39:04;1.24;98.42
64997;SHT31;51545;51.568;6.998;2023-01-20T02:41:43;1.25;98.46
64997;SHT31;51545;51.568;6.998;2023-01-20T02:46:51;1.24;98.63
64997;SHT31;51545;51.568;6.998;2023-01-20T02:49:25;1.21;98.57
64997;SHT31;51545;51.568;6.998;2023-01-20T02:51:57;1.25;98.66
64997;SHT31;51545;51.568;6.998;2023-01-20T02:54:28;1.28;98.64
64997;SHT31;51545;51.568;6.998;2023-01-20T02:56:57;1.22;98.71
64997;SHT31;51545;51.568;6.998;2023-01-20T02:59:27;1.18;98.78
64997;SHT31;51545;51.568;6.998;2023-01-20T03:02:01;1.17;98.88
64997;SHT31;51545;51.568;6.998;2023-01-20T03:04:32;1.17;98.95
64997;SHT31;51545;51.568;6.998;2023-01-20T03:07:02;1.14;99.07
64997;SHT31;51545;51.568;6.998;2023-01-20T03:09:31;1.15;99.08
64997;SHT31;51545;51.568;6.998;2023-01-20T03:12:03;1.15;99.09
64997;SHT31;51545;51.568;6.998;2023-01-20T03:14:35;1.15;99.13
64997;SHT31;51545;51.568;6.998;2023-01-20T03:17:01;1.18;99.06
64997;SHT31;51545;51.568;6.998;2023-01-20T03:19:27;1.17;99.07
64997;SHT31;51545;51.568;6.998;2023-01-20T03:21:53;1.21;99.19
64997;SHT31;51545;51.568;6.998;2023-01-20T03:24:19;1.25;99.15
64997;SHT31;51545;51.568;6.998;2023-01-20T03:26:46;1.22;99.03
64997;SHT31;51545;51.568;6.998;2023-01-20T03:29:11;1.22;99.00
64997;SHT31;51545;51.568;6.998;2023-01-20T03:31:44;1.18;98.83
64997;SHT31;51545;51.568;6.998;2023-01-20T03:34:15;1.21;98.88
64997;SHT31;51545;51.568;6.998;2023-01-20T03:36:43;1.17;98.71
64997;SHT31;51545;51.568;6.998;2023-01-20T03:39:10;1.15;98.52
64997;SHT31;51545;51.568;6.998;2023-01-20T03:47:21;1.21;98.46
64997;SHT31;51545;51.568;6.998;2023-01-20T03:50:08;1.19;98.30
64997;SHT31;51545;51.568;6.998;2023-01-20T03:52:57;1.19;98.25
64997;SHT31;51545;51.568;6.998;2023-01-20T03:55:34;1.15;98.19
64997;SHT31;51545;51.568;6.998;2023-01-20T03:58:13;1.18;98.15
64997;SHT31;51545;51.568;6.998;2023-01-20T04:00:43;1.17;98.07
64997;SHT31;51545;51.568;6.998;2023-01-20T04:03:14;1.18;98.13
64997;SHT31;51545;51.568;6.998;2023-01-20T04:05:42;1.17;98.18
64997;SHT31;51545;51.568;6.998;2023-01-20T04:08:09;1.19;98.14
64997;SHT31;51545;51.568;6.998;2023-01-20T04:10:38;1.17;98.15
64997;SHT31;51545;51.568;6.998;2023-01-20T04:13:06;1.24;98.27
64997;SHT31;51545;51.568;6.998;2023-01-20T04:15:33;1.22;98.22
64997;SHT31;51545;51.568;6.998;2023-01-20T04:20:38;1.12;98.45
64997;SHT31;51545;51.568;6.998;2023-01-20T04:23:04;1.09;98.36
64997;SHT31;51545;51.568;6.998;2023-01-20T04:25:30;1.11;98.20
64997;SHT31;51545;51.568;6.998;2023-01-20T04:27:57;1.12;98.13
64997;SHT31;51545;51.568;6.998;2023-01-20T04:30:23;1.11;97.84
64997;SHT31;51545;51.568;6.998;2023-01-20T04:32:48;1.01;97.88
64997;SHT31;51545;51.568;6.998;2023-01-20T04:35:15;1.07;97.85
64997;SHT31;51545;51.568;6.998;2023-01-20T04:37:41;1.02;97.83
64997;SHT31;51545;51.568;6.998;2023-01-20T04:40:08;1.07;97.77
64997;SHT31;51545;51.568;6.998;2023-01-20T04:42:34;1.07;97.63
64997;SHT31;51545;51.568;6.998;2023-01-20T04:45:00;1.05;97.65
64997;SHT31;51545;51.568;6.998;2023-01-20T04:47:28;1.08;97.55
64997;SHT31;51545;51.568;6.998;2023-01-20T04:49:55;1.09;97.39
64997;SHT31;51545;51.568;6.998;2023-01-20T04:52:20;1.11;97.27
64997;SHT31;51545;51.568;6.998;2023-01-20T04:54:46;1.11;97.20
64997;SHT31;51545;51.568;6.998;2023-01-20T04:57:11;1.14;97.35
64997;SHT31;51545;51.568;6.998;2023-01-20T04:59:37;1.15;97.14
64997;SHT31;51545;51.568;6.998;2023-01-20T05:02:02;1.18;97.29
64997;SHT31;51545;51.568;6.998;2023-01-20T05:04:27;1.17;97.34
64997;SHT31;51545;51.568;6.998;2023-01-20T05:06:53;1.17;97.33
64997;SHT31;51545;51.568;6.998;2023-01-20T05:09:18;1.21;97.30
64997;SHT31;51545;51.568;6.998;2023-01-20T05:11:44;1.14;97.17
64997;SHT31;51545;51.568;6.998;2023-01-20T05:14:10;1.19;97.18
64997;SHT31;51545;51.568;6.998;2023-01-20T05:16:36;1.19;97.22
64997;SHT31;51545;51.568;6.998;2023-01-20T05:19:01;1.18;97.21
64997;SHT31;51545;51.568;6.998;2023-01-20T05:21:27;1.22;97.31
64997;SHT31;51545;51.568;6.998;2023-01-20T05:23:53;1.24;97.23
64997;SHT31;51545;51.568;6.998;2023-01-20T05:26:19;1.22;97.22
64997;SHT31;51545;51.568;6.998;2023-01-20T05:28:46;1.19;97.16
64997;SHT31;51545;51.568;6.998;2023-01-20T05:31:11;1.25;97.19
64997;SHT31;51545;51.568;6.998;2023-01-20T05:33:37;1.18;97.01
64997;SHT31;51545;51.568;6.998;2023-01-20T05:36:04;1.19;97.25
64997;SHT31;51545;51.568;6.998;2023-01-20T05:38:30;1.26;97.20
64997;SHT31;51545;51.568;6.998;2023-01-20T05:41:02;1.29;97.16
64997;SHT31;51545;51.568;6.998;2023-01-20T05:43:29;1.26;97.00
64997;SHT31;51545;51.568;6.998;2023-01-20T05:45:55;1.28;96.90
64997;SHT31;51545;51.568;6.998;2023-01-20T05:48:21;1.29;96.73
64997;SHT31;51545;51.568;6.998;2023-01-20T05:50:47;1.26;96.58
64997;SHT31;51545;51.568;6.998;2023-01-20T05:53:12;1.25;96.66
64997;SHT31;51545;51.568;6.998;2023-01-20T05:55:38;1.31;96.65
64997;SHT31;51545;51.568;6.998;2023-01-20T05:58:04;1.31;96.24
64997;SHT31;51545;51.568;6.998;2023-01-20T06:00:30;1.29;96.02
64997;SHT31;51545;51.568;6.998;2023-01-20T06:02:56;1.29;95.92
64997;SHT31;51545;51.568;6.998;2023-01-20T06:05:22;1.31;95.64
64997;SHT31;51545;51.568;6.998;2023-01-20T06:07:48;1.29;95.26
64997;SHT31;51545;51.568;6.998;2023-01-20T06:10:14;1.28;95.37
64997;SHT31;51545;51.568;6.998;2023-01-20T06:12:40;1.34;95.35
64997;SHT31;51545;51.568;6.998;2023-01-20T06:15:06;1.34;95.36
64997;SHT31;51545;51.568;6.998;2023-01-20T06:17:31;1.34;95.41
64997;SHT31;51545;51.568;6.998;2023-01-20T06:19:57;1.34;95.38
64997;SHT31;51545;51.568;6.998;2023-01-20T06:22:24;1.32;95.68
64997;SHT31;51545;51.568;6.998;2023-01-20T06:24:50;1.34;95.96
64997;SHT31;51545;51.568;6.998;2023-01-20T06:27:16;1.34;96.09
64997;SHT31;51545;51.568;6.998;2023-01-20T06:29:42;1.31;96.22
64997;SHT31;51545;51.568;6.998;2023-01-20T06:32:08;1.29;96.40
64997;SHT31;51545;51.568;6.998;2023-01-20T06:34:33;1.31;96.56
64997;SHT31;51545;51.568;6.998;2023-01-20T06:36:59;1.31;96.49
64997;SHT31;51545;51.568;6.998;2023-01-20T06:39:25;1.32;96.61
64997;SHT31;51545;51.568;6.998;2023-01-20T06:41:51;1.35;96.57
64997;SHT31;51545;51.568;6.998;2023-01-20T06:44:16;1.32;96.52
64997;SHT31;51545;51.568;6.998;2023-01-20T06:46:42;1.35;96.46
64997;SHT31;51545;51.568;6.998;2023-01-20T06:49:08;1.38;96.46
64997;SHT31;51545;51.568;6.998;2023-01-20T06:51:33;1.38;96.52
64997;SHT31;51545;51.568;6.998;2023-01-20T06:53:58;1.36;96.38
64997;SHT31;51545;51.568;6.998;2023-01-20T06:56:24;1.29;96.45
64997;SHT31;51545;51.568;6.998;2023-01-20T06:58:50;1.36;96.43
64997;SHT31;51545;51.568;6.998;2023-01-20T07:01:29;1.34;96.27
64997;SHT31;51545;51.568;6.998;2023-01-20T07:03:55;1.34;96.44
64997;SHT31;51545;51.568;6.998;2023-01-20T07:06:26;1.36;96.25
64997;SHT31;51545;51.568;6.998;2023-01-20T07:08:54;1.36;96.14
64997;SHT31;51545;51.568;6.998;2023-01-20T07:11:20;1.35;96.14
64997;SHT31;51545;51.568;6.998;2023-01-20T07:13:45;1.29;96.13
64997;SHT31;51545;51.568;6.998;2023-01-20T07:16:11;1.28;96.22
64997;SHT31;51545;51.568;6.998;2023-01-20T07:18:37;1.28;96.39
64997;SHT31;51545;51.568;6.998;2023-01-20T07:21:04;1.28;96.26
64997;SHT31;51545;51.568;6.998;2023-01-20T07:23:30;1.29;96.37
64997;SHT31;51545;51.568;6.998;2023-01-20T07:25:58;1.32;96.22
64997;SHT31;51545;51.568;6.998;2023-01-20T07:28:27;1.28;95.90
64997;SHT31;51545;51.568;6.998;2023-01-20T07:30:54;1.28;95.79
64997;SHT31;51545;51.568;6.998;2023-01-20T07:33:19;1.31;95.60
64997;SHT31;51545;51.568;6.998;2023-01-20T07:35:49;1.22;95.80
64997;SHT31;51545;51.568;6.998;2023-01-20T07:38:15;1.28;95.42
64997;SHT31;51545;51.568;6.998;2023-01-20T07:40:41;1.26;95.43
64997;SHT31;51545;51.568;6.998;2023-01-20T07:43:06;1.28;95.42
64997;SHT31;51545;51.568;6.998;2023-01-20T07:45:31;1.26;95.08
64997;SHT31;51545;51.568;6.998;2023-01-20T07:47:57;1.28;95.28
64997;SHT31;51545;51.568;6.998;2023-01-20T07:50:22;1.28;95.10
64997;SHT31;51545;51.568;6.998;2023-01-20T07:52:48;1.26;94.99
64997;SHT31;51545;51.568;6.998;2023-01-20T07:55:13;1.24;94.91
64997;SHT31;51545;51.568;6.998;2023-01-20T07:57:39;1.28;95.02
64997;SHT31;51545;51.568;6.998;2023-01-20T08:00:06;1.32;94.89
64997;SHT31;51545;51.568;6.998;2023-01-20T08:02:35;1.31;95.03
64997;SHT31;51545;51.568;6.998;2023-01-20T08:05:02;1.31;94.71
64997;SHT31;51545;51.568;6.998;2023-01-20T08:07:28;1.31;94.63
64997;SHT31;51545;51.568;6.998;2023-01-20T08:09:53;1.34;94.95
64997;SHT31;51545;51.568;6.998;2023-01-20T08:12:19;1.36;94.92
64997;SHT31;51545;51.568;6.998;2023-01-20T08:14:44;1.39;94.52
64997;SHT31;51545;51.568;6.998;2023-01-20T08:17:10;1.38;94.24
64997;SHT31;51545;51.568;6.998;2023-01-20T08:19:35;1.36;94.09
64997;SHT31;51545;51.568;6.998;2023-01-20T08:22:01;1.38;93.94
64997;SHT31;51545;51.568;6.998;2023-01-20T08:24:26;1.36;93.98
64997;SHT31;51545;51.568;6.998;2023-01-20T08:26:51;1.46;93.73
64997;SHT31;51545;51.568;6.998;2023-01-20T08:29:17;1.45;93.95
64997;SHT31;51545;51.568;6.998;2023-01-20T08:31:43;1.50;94.01
64997;SHT31;51545;51.568;6.998;2023-01-20T08:34:08;1.55;93.96
64997;SHT31;51545;51.568;6.998;2023-01-20T08:36:34;1.59;93.94
64997;SHT31;51545;51.568;6.998;2023-01-20T08:39:05;1.57;93.71
64997;SHT31;51545;51.568;6.998;2023-01-20T08:41:34;1.60;93.90
64997;SHT31;51545;51.568;6.998;2023-01-20T08:44:01;1.56;93.79
64997;SHT31;51545;51.568;6.998;2023-01-20T08:46:29;1.64;94.00
64997;SHT31;51545;51.568;6.998;2023-01-20T08:48:55;1.57;93.82
64997;SHT31;51545;51.568;6.998;2023-01-20T08:51:21;1.55;93.96
64997;SHT31;51545;51.568;6.998;2023-01-20T08:53:50;1.59;94.22
64997;SHT31;51545;51.568;6.998;2023-01-20T08:56:16;1.64;94.16
64997;SHT31;51545;51.568;6.998;2023-01-20T08:58:42;1.60;94.18
64997;SHT31;51545;51.568;6.998;2023-01-20T09:01:19;1.60;94.08
64997;SHT31;51545;51.568;6.998;2023-01-20T09:03:46;1.57;94.16
64997;SHT31;51545;51.568;6.998;2023-01-20T09:06:12;1.62;94.14
64997;SHT31;51545;51.568;6.998;2023-01-20T09:08:39;1.63;94.29
64997;SHT31;51545;51.568;6.998;2023-01-20T09:11:09;1.62;93.97
64997;SHT31;51545;51.568;6.998;2023-01-20T09:13:37;1.62;94.23
64997;SHT31;51545;51.568;6.998;2023-01-20T09:16:03;1.66;94.50
64997;SHT31;51545;51.568;6.998;2023-01-20T09:18:30;1.64;94.27
64997;SHT31;51545;51.568;6.998;2023-01-20T09:20:56;1.63;94.05
64997;SHT31;51545;51.568;6.998;2023-01-20T09:23:23;1.70;94.17
64997;SHT31;51545;51.568;6.998;2023-01-20T09:25:49;1.73;93.93
64997;SHT31;51545;51.568;6.998;2023-01-20T09:28:14;1.64;94.02
64997;SHT31;51545;51.568;6.998;2023-01-20T09:30:40;1.64;93.81
64997;SHT31;51545;51.568;6.998;2023-01-20T09:33:07;1.71;94.06
64997;SHT31;51545;51.568;6.998;2023-01-20T09:35:33;1.73;93.89
64997;SHT31;51545;51.568;6.998;2023-01-20T09:37:59;1.73;93.90
64997;SHT31;51545;51.568;6.998;2023-01-20T09:40:47;1.73;93.57
64997;SHT31;51545;51.568;6.998;2023-01-20T09:47:03;1.80;93.57
64997;SHT31;51545;51.568;6.998;2023-01-20T09:53:09;1.75;93.81
64997;SHT31;51545;51.568;6.998;2023-01-20T09:55:51;1.77;93.84
64997;SHT31;51545;51.568;6.998;2023-01-20T09:58:19;2.06;93.64
64997;SHT31;51545;51.568;6.998;2023-01-20T10:00:54;2.73;94.23
64997;SHT31;51545;51.568;6.998;2023-01-20T10:03:27;3.42;91.88
64997;SHT31;51545;51.568;6.998;2023-01-20T10:06:01;3.08;89.19
64997;SHT31;51545;51.568;6.998;2023-01-20T10:08:44;2.92;90.00
64997;SHT31;51545;51.568;6.998;2023-01-20T10:11:17;2.98;89.95
64997;SHT31;51545;51.568;6.998;2023-01-20T10:13:49;3.27;89.81
64997;SHT31;51545;51.568;6.998;2023-01-20T10:16:28;3.03;89.30
64997;SHT31;51545;51.568;6.998;2023-01-20T10:19:09;3.84;89.20
64997;SHT31;51545;51.568;6.998;2023-01-20T10:22:02;3.38;87.88
64997;SHT31;51545;51.568;6.998;2023-01-20T10:24:54;3.50;86.88
64997;SHT31;51545;51.568;6.998;2023-01-20T10:27:31;3.47;87.51
64997;SHT31;51545;51.568;6.998;2023-01-20T10:30:07;3.51;87.95
64997;SHT31;51545;51.568;6.998;2023-01-20T10:32:54;3.39;87.18
64997;SHT31;51545;51.568;6.998;2023-01-20T10:35:48;3.50;88.38
64997;SHT31;51545;51.568;6.998;2023-01-20T10:38:23;3.73;86.64
64997;SHT31;51545;51.568;6.998;2023-01-20T10:41:02;3.71;86.11
64997;SHT31;51545;51.568;6.998;2023-01-20T10:43:32;3.64;85.43
64997;SHT31;51545;51.568;6.998;2023-01-20T10:46:08;3.91;85.40
64997;SHT31;51545;51.568;6.998;2023-01-20T10:54:06;3.56;86.15
64997;SHT31;51545;51.568;6.998;2023-01-20T10:57:00;3.77;85.49
64997;SHT31;51545;51.568;6.998;2023-01-20T10:59:36;3.43;85.83
64997;SHT31;51545;51.568;6.998;2023-01-20T11:02:25;3.95;86.13
64997;SHT31;51545;51.568;6.998;2023-01-20T11:07:24;4.12;85.32
64997;SHT31;51545;51.568;6.998;2023-01-20T11:09:51;3.96;85.02
64997;SHT31;51545;51.568;6.998;2023-01-20T11:12:24;3.60;84.70
64997;SHT31;51545;51.568;6.998;2023-01-20T11:14:53;3.58;86.03
64997;SHT31;51545;51.568;6.998;2023-01-20T11:17:20;3.71;85.14
64997;SHT31;51545;51.568;6.998;2023-01-20T11:19:47;4.05;83.50
64997;SHT31;51545;51.568;6.998;2023-01-20T11:22:13;3.77;83.91
64997;SHT31;51545;51.568;6.998;2023-01-20T11:24:44;3.63;85.01
64997;SHT31;51545;51.568;6.998;2023-01-20T11:27:18;3.74;85.30
64997;SHT31;51545;51.568;6.998;2023-01-20T11:29:56;3.43;85.16
64997;SHT31;51545;51.568;6.998;2023-01-20T11:34:54;3.63;86.87
64997;SHT31;51545;51.568;6.998;2023-01-20T11:37:22;3.77;85.56
64997;SHT31;51545;51.568;6.998;2023-01-20T11:39:59;3.56;84.44
64997;SHT31;51545;51.568;6.998;2023-01-20T11:42:44;3.61;84.70
64997;SHT31;51545;51.568;6.998;2023-01-20T11:45:33;3.79;83.27
64997;SHT31;51545;51.568;6.998;2023-01-20T11:48:03;3.79;83.43
64997;SHT31;51545;51.568;6.998;2023-01-20T11:50:34;3.54;83.55
64997;SHT31;51545;51.568;6.998;2023-01-20T11:53:26;3.84;84.35
64997;SHT31;51545;51.568;6.998;2023-01-20T11:55:57;3.79;83.23
64997;SHT31;51545;51.568;6.998;2023-01-20T11:58:57;3.82;83.27
64997;SHT31;51545;51.568;6.998;2023-01-20T12:01:26;3.46;84.28
64997;SHT31;51545;51.568;6.998;2023-01-20T12:04:07;3.81;85.05
64997;SHT31;51545;51.568;6.998;2023-01-20T12:07:06;3.42;84.99
64997;SHT31;51545;51.568;6.998;2023-01-20T12:09:45;3.67;83.34
64997;SHT31;51545;51.568;6.998;2023-01-20T12:18:06;3.86;84.19
64997;SHT31;51545;51.568;6.998;2023-01-20T12:20:43;4.05;84.36
64997;SHT31;51545;51.568;6.998;2023-01-20T12:26:09;4.47;83.76
64997;SHT31;51545;51.568;6.998;2023-01-20T12:28:39;4.33;82.38
64997;SHT31;51545;51.568;6.998;2023-01-20T12:31:10;4.57;81.15
64997;SHT31;51545;51.568;6.998;2023-01-20T12:33:37;4.23;81.69
64997;SHT31;51545;51.568;6.998;2023-01-20T12:47:03;3.47;84.36
64997;SHT31;51545;51.568;6.998;2023-01-20T12:55:22;3.46;83.93
64997;SHT31;51545;51.568;6.998;2023-01-20T13:01:05;3.26;84.52
64997;SHT31;51545;51.568;6.998;2023-01-20T13:06:34;3.32;84.98
64997;SHT31;51545;51.568;6.998;2023-01-20T13:14:27;3.38;84.49
64997;SHT31;51545;51.568;6.998;2023-01-20T13:17:08;3.42;84.53
64997;SHT31;51545;51.568;6.998;2023-01-20T13:19:41;3.40;85.45
64997;SHT31;51545;51.568;6.998;2023-01-20T13:22:13;3.33;84.75
64997;SHT31;51545;51.568;6.998;2023-01-20T13:24:43;3.30;84.50
64997;SHT31;51545;51.568;6.998;2023-01-20T13:27:10;3.20;84.62
64997;SHT31;51545;51.568;6.998;2023-01-20T13:37:47;3.32;85.30
64997;SHT31;51545;51.568;6.998;2023-01-20T13:40:51;3.22;84.37
64997;SHT31;51545;51.568;6.998;2023-01-20T13:48:30;3.23;84.62
64997;SHT31;51545;51.568;6.998;2023-01-20T13:53:53;3.30;84.36
64997;SHT31;51545;51.568;6.998;2023-01-20T13:56:38;3.38;84.71
64997;SHT31;51545;51.568;6.998;2023-01-20T13:59:06;3.32;84.43
64997;SHT31;51545;51.568;6.998;2023-01-20T14:01:32;3.39;84.81
64997;SHT31;51545;51.568;6.998;2023-01-20T14:04:03;3.27;84.26
64997;SHT31;51545;51.568;6.998;2023-01-20T14:06:29;3.26;84.64
64997;SHT31;51545;51.568;6.998;2023-01-20T14:08:58;3.33;84.99
64997;SHT31;51545;51.568;6.998;2023-01-20T14:11:26;3.27;84.21
64997;SHT31;51545;51.568;6.998;2023-01-20T14:14:05;3.06;84.03
64997;SHT31;51545;51.568;6.998;2023-01-20T14:19:00;3.05;83.66
64997;SHT31;51545;51.568;6.998;2023-01-20T14:21:39;2.98;82.94
64997;SHT31;51545;51.568;6.998;2023-01-20T14:24:23;2.96;82.18
64997;SHT31;51545;51.568;6.998;2023-01-20T14:27:29;2.92;81.52
64997;SHT31;51545;51.568;6.998;2023-01-20T14:29:58;2.96;81.34
64997;SHT31;51545;51.568;6.998;2023-01-20T14:32:38;3.08;81.32
64997;SHT31;51545;51.568;6.998;2023-01-20T14:35:14;3.23;81.27
64997;SHT31;51545;51.568;6.998;2023-01-20T14:37:49;3.36;82.07
64997;SHT31;51545;51.568;6.998;2023-01-20T14:40:49;3.27;81.43
64997;SHT31;51545;51.568;6.998;2023-01-20T14:43:18;3.13;81.75
64997;SHT31;51545;51.568;6.998;2023-01-20T14:45:46;3.11;80.99
64997;SHT31;51545;51.568;6.998;2023-01-20T14:48:15;2.96;81.48
64997;SHT31;51545;51.568;6.998;2023-01-20T14:50:41;2.94;81.69
64997;SHT31;51545;51.568;6.998;2023-01-20T14:53:11;3.06;82.27
64997;SHT31;51545;51.568;6.998;2023-01-20T14:55:38;2.99;82.30
64997;SHT31;51545;51.568;6.998;2023-01-20T14:58:22;2.99;82.48
64997;SHT31;51545;51.568;6.998;2023-01-20T15:00:49;2.98;82.97
64997;SHT31;51545;51.568;6.998;2023-01-20T15:03:23;2.99;83.35
64997;SHT31;51545;51.568;6.998;2023-01-20T15:13:39;2.89;82.48
64997;SHT31;51545;51.568;6.998;2023-01-20T15:18:38;2.83;82.94
64997;SHT31;51545;51.568;6.998;2023-01-20T15:21:11;2.77;83.35
64997;SHT31;51545;51.568;6.998;2023-01-20T15:23:36;2.83;83.43
64997;SHT31;51545;51.568;6.998;2023-01-20T15:26:08;2.71;83.62
64997;SHT31;51545;51.568;6.998;2023-01-20T15:28:52;2.70;83.19
64997;SHT31;51545;51.568;6.998;2023-01-20T15:31:18;2.58;84.16
64997;SHT31;51545;51.568;6.998;2023-01-20T15:33:44;2.54;83.81
64997;SHT31;51545;51.568;6.998;2023-01-20T15:38:41;2.40;84.08
64997;SHT31;51545;51.568;6.998;2023-01-20T15:41:07;2.40;84.55
64997;SHT31;51545;51.568;6.998;2023-01-20T15:43:35;2.33;84.73
64997;SHT31;51545;51.568;6.998;2023-01-20T15:46:00;2.35;84.68
64997;SHT31;51545;51.568;6.998;2023-01-20T15:48:26;2.32;84.93
64997;SHT31;51545;51.568;6.998;2023-01-20T15:50:51;2.32;84.67
64997;SHT31;51545;51.568;6.998;2023-01-20T15:53:17;2.19;84.78
64997;SHT31;51545;51.568;6.998;2023-01-20T15:55:46;2.29;84.56
64997;SHT31;51545;51.568;6.998;2023-01-20T15:58:19;2.32;84.58
64997;SHT31;51545;51.568;6.998;2023-01-20T16:00:47;2.30;83.79
64997;SHT31;51545;51.568;6.998;2023-01-20T16:03:13;2.33;83.69
64997;SHT31;51545;51.568;6.998;2023-01-20T16:05:38;2.35;84.07
64997;SHT31;51545;51.568;6.998;2023-01-20T16:08:14;2.30;83.70
64997;SHT31;51545;51.568;6.998;2023-01-20T16:10:40;2.26;84.22
64997;SHT31;51545;51.568;6.998;2023-01-20T16:13:07;2.18;84.04
64997;SHT31;51545;51.568;6.998;2023-01-20T16:15:34;2.18;84.07
64997;SHT31;51545;51.568;6.998;2023-01-20T16:17:59;2.15;84.61
64997;SHT31;51545;51.568;6.998;2023-01-20T16:20:25;2.12;84.60
64997;SHT31;51545;51.568;6.998;2023-01-20T16:22:50;1.92;84.44
64997;SHT31;51545;51.568;6.998;2023-01-20T16:25:16;1.92;84.75
64997;SHT31;51545;51.568;6.998;2023-01-20T16:27:42;1.85;85.02
64997;SHT31;51545;51.568;6.998;2023-01-20T16:30:15;1.90;84.90
64997;SHT31;51545;51.568;6.998;2023-01-20T16:32:42;1.87;85.05
64997;SHT31;51545;51.568;6.998;2023-01-20T16:35:11;1.81;85.11
64997;SHT31;51545;51.568;6.998;2023-01-20T16:37:37;1.80;85.28
64997;SHT31;51545;51.568;6.998;2023-01-20T16:40:03;1.71;85.55
64997;SHT31;51545;51.568;6.998;2023-01-20T16:42:29;1.59;86.22
64997;SHT31;51545;51.568;6.998;2023-01-20T16:44:54;1.45;86.68
64997;SHT31;51545;51.568;6.998;2023-01-20T16:47:20;1.38;86.81
64997;SHT31;51545;51.568;6.998;2023-01-20T16:49:45;1.26;87.20
64997;SHT31;51545;51.568;6.998;2023-01-20T16:52:11;1.18;87.59
64997;SHT31;51545;51.568;6.998;2023-01-20T16:54:37;1.14;88.13
64997;SHT31;51545;51.568;6.998;2023-01-20T16:57:03;1.04;88.22
64997;SHT31;51545;51.568;6.998;2023-01-20T16:59:28;0.97;88.57
64997;SHT31;51545;51.568;6.998;2023-01-20T17:01:54;0.91;88.94
64997;SHT31;51545;51.568;6.998;2023-01-20T17:04:20;0.80;89.37
64997;SHT31;51545;51.568;6.998;2023-01-20T17:06:45;0.76;89.49
64997;SHT31;51545;51.568;6.998;2023-01-20T17:09:10;0.64;89.99
64997;SHT31;51545;51.568;6.998;2023-01-20T17:11:37;0.69;90.25
64997;SHT31;51545;51.568;6.998;2023-01-20T17:14:05;0.64;90.22
64997;SHT31;51545;51.568;6.998;2023-01-20T17:16:31;0.55;90.34
64997;SHT31;51545;51.568;6.998;2023-01-20T17:18:58;0.55;90.58
64997;SHT31;51545;51.568;6.998;2023-01-20T17:21:25;0.52;90.67
64997;SHT31;51545;51.568;6.998;2023-01-20T17:23:55;0.48;90.80
64997;SHT31;51545;51.568;6.998;2023-01-20T17:26:23;0.59;91.01
64997;SHT31;51545;51.568;6.998;2023-01-20T17:28:52;0.62;90.69
64997;SHT31;51545;51.568;6.998;2023-01-20T17:31:19;0.59;90.69
64997;SHT31;51545;51.568;6.998;2023-01-20T17:33:45;0.60;90.86
64997;SHT31;51545;51.568;6.998;2023-01-20T17:36:11;0.52;90.85
64997;SHT31;51545;51.568;6.998;2023-01-20T17:38:36;0.45;90.99
64997;SHT31;51545;51.568;6.998;2023-01-20T17:41:04;0.42;91.15
64997;SHT31;51545;51.568;6.998;2023-01-20T17:43:34;0.35;91.23
64997;SHT31;51545;51.568;6.998;2023-01-20T17:46:12;0.34;91.36
64997;SHT31;51545;51.568;6.998;2023-01-20T17:48:41;0.28;91.53